Plattsmouth, NE

1:01 PM CDT on May 22, 2017 (GMT -0500)
Plattsmouth Municipal

Weather History for KPMV - November, 2012

Change the Weather History Date:

Monday, November 19, 2012

  Actual Average (KOFF) Record (KOFF)
Temperature  
Mean Temperature 52 °F -  
Max Temperature 62 °F 47 °F 72 °F (2007)
Min Temperature 42 °F 28 °F 15 °F (2006)
Degree Days  
Heating Degree Days 13    
Growing Degree Days 2 (Base 50)    
Moisture  
Dew Point 38 °F    
Average Humidity 63    
Maximum Humidity 83    
Minimum Humidity 40    
Precipitation  
Precipitation 0.00 in - - ()
Sea Level Pressure  
Sea Level Pressure 30.05 in    
Wind  
Wind Speed 11 mph (SW)    
Max Wind Speed 15 mph    
Max Gust Speed 20 mph    
Visibility 10 miles    
Events      
Averages and records for this station are not official NWS values.
T = Trace of Precipitation, MM = Missing Value Source: NWS Daily Summary

Daily Weather History Graph

Daily Weather History Graph

Search for Another Location

Airport or City:

Trip Planner

Search our weather history database for the weather conditions in past years. The results will help you decide how hot, cold, wet, or windy it might be!

Date:

Astronomy

Nov. 19, 2012 Rise Set
Actual Time 7:16 AM CST 5:01 PM CST
Civil Twilight 6:46 AM CST 5:31 PM CST
Nautical Twilight 6:13 AM CST 6:04 PM CST
Astronomical Twilight 5:40 AM CST 6:37 PM CST
Moon 12:18 PM CST (11/19) 11:31 PM CST (11/19)
Length of Visible Light 10h 44m
Length of Day
9h 45m
Waxing Crescent, 41% of the Moon is Illuminated
Nov 19
Waxing Crescent
Nov 20
First Quarter
Nov 28
Full
Dec 6
Last Quarter
Dec 13
New

Hourly Weather History & Observations

Time (CST) Temp. Windchill Dew Point Humidity Pressure Visibility Wind Dir Wind Speed Gust Speed Precip Events Conditions
12:15 AM 51.1 °F - 36.1 °F 57% 30.05 in 10.0 mi SSE 13.8 mph - N/A   Clear
12:35 AM 50.9 °F - 36.1 °F 57% 30.04 in 10.0 mi SSE 15.0 mph - N/A   Clear
12:55 AM 50.5 °F - 35.8 °F 57% 30.03 in 10.0 mi SSE 12.7 mph 19.6 mph N/A   Clear
1:15 AM 50.2 °F - 35.8 °F 58% 30.03 in 10.0 mi SSE 12.7 mph - N/A   Clear
1:35 AM 49.5 °F - 36.0 °F 60% 30.03 in 10.0 mi SSE 11.5 mph - N/A   Clear
1:55 AM 48.9 °F - 36.0 °F 61% 30.03 in 10.0 mi SSE 11.5 mph - N/A   Clear
2:15 AM 48.9 °F - 35.8 °F 61% 30.03 in 10.0 mi SSE 12.7 mph - N/A   Clear
2:35 AM 49.3 °F - 35.6 °F 59% 30.03 in 10.0 mi SSE 11.5 mph - N/A   Clear
2:55 AM 48.7 °F - 35.6 °F 60% 30.03 in 10.0 mi SSE 12.7 mph 18.4 mph N/A   Clear
3:15 AM 48.4 °F - 35.6 °F 61% 30.03 in 10.0 mi SSE 12.7 mph - N/A   Clear
3:35 AM 47.8 °F - 35.6 °F 63% 30.03 in 10.0 mi SSE 11.5 mph - N/A   Clear
3:55 AM 47.3 °F - 35.6 °F 64% 30.03 in 10.0 mi SSE 9.2 mph - N/A   Clear
4:15 AM 46.9 °F - 35.6 °F 65% 30.02 in 10.0 mi SSE 11.5 mph - N/A   Clear
4:35 AM 46.8 °F - 35.6 °F 65% 30.02 in 10.0 mi SSE 11.5 mph - N/A   Clear
4:55 AM 46.6 °F - 35.8 °F 66% 30.03 in 10.0 mi SSE 10.4 mph - N/A   Clear
5:15 AM 46.2 °F 40.8 °F 35.8 °F 67% 30.02 in 10.0 mi SSE 11.5 mph - N/A   Clear
5:35 AM 46.0 °F 41.0 °F 36.3 °F 69% 30.02 in 10.0 mi SSE 10.4 mph - N/A   Clear
5:55 AM 45.5 °F 40.3 °F 36.5 °F 71% 30.02 in 10.0 mi SSE 10.4 mph - N/A   Clear
6:15 AM 44.8 °F 39.4 °F 36.5 °F 73% 30.02 in 10.0 mi SSE 10.4 mph - N/A   Clear
6:35 AM 44.2 °F 39.7 °F 36.7 °F 75% 30.02 in 10.0 mi SSE 8.1 mph - N/A   Clear
6:55 AM 43.2 °F 38.4 °F 36.7 °F 78% 30.02 in 10.0 mi SSE 8.1 mph - N/A   Clear
7:35 AM 42.6 °F 37.2 °F 37.6 °F 82% 30.03 in 10.0 mi SSE 9.2 mph - N/A   Clear
7:55 AM 43.3 °F 38.1 °F 38.5 °F 83% 30.03 in 10.0 mi SSE 9.2 mph - N/A   Clear
8:15 AM 45.0 °F 39.3 °F 39.9 °F 82% 30.03 in 10.0 mi SSE 11.5 mph - N/A   Clear
8:35 AM 46.6 °F - 40.8 °F 80% 30.03 in 10.0 mi SSE 10.4 mph 16.1 mph N/A   Clear
8:55 AM 47.5 °F - 41.2 °F 79% 30.03 in 10.0 mi SSE 11.5 mph - N/A   Clear
9:15 AM 48.9 °F - 41.9 °F 77% 30.03 in 10.0 mi South 11.5 mph - N/A   Clear
9:35 AM 50.9 °F - 42.4 °F 73% 30.04 in 10.0 mi South 13.8 mph - N/A   Clear
9:55 AM 51.4 °F - 42.3 °F 71% 30.04 in 10.0 mi South 13.8 mph - N/A   Clear
10:15 AM 53.1 °F - 42.6 °F 68% 30.05 in 10.0 mi South 13.8 mph - N/A   Clear
10:35 AM 54.5 °F - 42.6 °F 64% 30.06 in 10.0 mi SSW 12.7 mph - N/A   Clear
10:55 AM 56.3 °F - 42.6 °F 60% 30.04 in 10.0 mi SSW 11.5 mph - N/A   Clear
11:15 AM 57.4 °F - 41.7 °F 56% 30.04 in 10.0 mi SW 15.0 mph - N/A   Clear
11:35 AM 58.6 °F - 41.5 °F 53% 30.04 in 10.0 mi SW 11.5 mph - N/A   Clear
11:55 AM 59.4 °F - 40.8 °F 50% 30.03 in 10.0 mi WSW 10.4 mph 17.3 mph N/A   Clear
12:15 PM 60.4 °F - 39.7 °F 46% 30.02 in 10.0 mi WSW 11.5 mph - N/A   Clear
12:35 PM 61.2 °F - 39.4 °F 45% 30.03 in 10.0 mi WSW 9.2 mph - N/A   Clear
12:55 PM 60.1 °F - 37.6 °F 43% 30.03 in 10.0 mi West 12.7 mph - N/A   Clear
1:15 PM 60.8 °F - 37.2 °F 42% 30.03 in 10.0 mi West 12.7 mph - N/A   Clear
1:35 PM 61.0 °F - 37.8 °F 42% 30.03 in 10.0 mi West 10.4 mph - N/A   Clear
1:55 PM 61.2 °F - 37.4 °F 41% 30.02 in 10.0 mi West 9.2 mph - N/A   Clear
2:15 PM 62.2 °F - 37.6 °F 40% 30.02 in 10.0 mi West 6.9 mph - N/A   Clear
2:35 PM 62.8 °F - 37.8 °F 40% 30.03 in 10.0 mi NW 9.2 mph - N/A   Clear
2:55 PM 61.7 °F - 37.4 °F 41% 30.03 in 10.0 mi WNW 12.7 mph - N/A   Clear
3:15 PM 61.0 °F - 37.8 °F 42% 30.04 in 10.0 mi West 11.5 mph - N/A   Clear
3:55 PM 60.6 °F - 38.5 °F 44% 30.04 in 10.0 mi West 8.1 mph - N/A   Clear
4:15 PM 59.9 °F - 38.3 °F 45% 30.05 in 10.0 mi WNW 9.2 mph - N/A   Clear
4:35 PM 57.9 °F - 38.5 °F 48% 30.04 in 10.0 mi WNW 6.9 mph - N/A   Clear
4:55 PM 55.4 °F - 38.3 °F 53% 30.05 in 10.0 mi WNW 5.8 mph - N/A   Clear
5:15 PM 53.2 °F - 37.8 °F 56% 30.05 in 10.0 mi WNW 4.6 mph - N/A   Clear
5:35 PM 52.0 °F - 37.8 °F 58% 30.06 in 10.0 mi NW 8.1 mph - N/A   Clear
5:55 PM 52.3 °F - 38.3 °F 59% 30.06 in 10.0 mi NW 8.1 mph - N/A   Clear
6:15 PM 49.6 °F - 38.1 °F 65% 30.07 in 10.0 mi NW 6.9 mph - N/A   Clear
6:35 PM 49.8 °F - 38.1 °F 64% 30.08 in 10.0 mi NW 5.8 mph - N/A   Clear
6:55 PM 50.0 °F - 38.3 °F 64% 30.09 in 10.0 mi WNW 6.9 mph - N/A   Clear
7:15 PM 48.4 °F - 38.3 °F 68% 30.09 in 10.0 mi WNW 5.8 mph - N/A   Clear
7:35 PM 49.3 °F - 38.5 °F 66% 30.10 in 10.0 mi NW 8.1 mph - N/A   Clear
7:55 PM 48.6 °F - 38.3 °F 68% 30.10 in 10.0 mi WNW 9.2 mph - N/A   Clear
8:15 PM 47.7 °F - 38.1 °F 70% 30.10 in 10.0 mi WNW 8.1 mph - N/A   Clear
8:35 PM 46.4 °F 41.5 °F 37.8 °F 72% 30.10 in 10.0 mi NW 10.4 mph - N/A   Clear
9:15 PM 45.5 °F 39.9 °F 37.0 °F 72% 30.11 in 10.0 mi NW 11.5 mph - N/A   Clear
9:35 PM 44.8 °F 39.0 °F 37.0 °F 74% 30.11 in 10.0 mi NW 11.5 mph - N/A   Clear
9:55 PM 44.8 °F 39.4 °F 37.4 °F 75% 30.11 in 10.0 mi NW 10.4 mph - N/A   Clear
10:15 PM 45.5 °F 40.8 °F 37.4 °F 73% 30.11 in 10.0 mi NW 9.2 mph - N/A   Clear
10:35 PM 45.5 °F 40.8 °F 37.4 °F 73% 30.11 in 10.0 mi NW 9.2 mph - N/A   Clear
10:55 PM 45.9 °F 40.8 °F 37.4 °F 72% 30.11 in 10.0 mi WNW 10.4 mph - N/A   Clear
11:15 PM 45.0 °F 41.8 °F 37.0 °F 74% 30.11 in 10.0 mi West 5.8 mph - N/A   Clear
11:35 PM 43.9 °F 39.9 °F 36.5 °F 75% 30.11 in 10.0 mi West 6.9 mph - N/A   Clear
11:55 PM 42.8 °F 39.3 °F 36.5 °F 78% 30.11 in 10.0 mi WNW 5.8 mph - N/A   Clear